sensor_id;sensor_type;location;lat;lon;timestamp;P1;durP1;ratioP1;P2;durP2;ratioP2
27209;SDS011;14721;42.668;23.386;2024-01-30T00:01:37;6.97;;;3.50;;
27209;SDS011;14721;42.668;23.386;2024-01-30T00:04:20;8.57;;;3.13;;
27209;SDS011;14721;42.668;23.386;2024-01-30T00:14:35;5.57;;;2.63;;
27209;SDS011;14721;42.668;23.386;2024-01-30T00:20:23;7.20;;;3.30;;
27209;SDS011;14721;42.668;23.386;2024-01-30T00:22:48;7.70;;;3.27;;
27209;SDS011;14721;42.668;23.386;2024-01-30T00:25:53;7.50;;;3.27;;
27209;SDS011;14721;42.668;23.386;2024-01-30T00:28:37;8.77;;;2.67;;
27209;SDS011;14721;42.668;23.386;2024-01-30T00:31:26;9.63;;;2.73;;
27209;SDS011;14721;42.668;23.386;2024-01-30T01:01:44;8.30;;;3.60;;
27209;SDS011;14721;42.668;23.386;2024-01-30T01:04:15;5.63;;;3.20;;
27209;SDS011;14721;42.668;23.386;2024-01-30T01:06:56;7.60;;;3.20;;
27209;SDS011;14721;42.668;23.386;2024-01-30T01:09:36;5.80;;;2.80;;
27209;SDS011;14721;42.668;23.386;2024-01-30T01:12:02;8.10;;;3.20;;
27209;SDS011;14721;42.668;23.386;2024-01-30T01:14:48;6.20;;;2.90;;
27209;SDS011;14721;42.668;23.386;2024-01-30T01:17:41;6.13;;;3.37;;
27209;SDS011;14721;42.668;23.386;2024-01-30T01:20:07;4.57;;;2.57;;
27209;SDS011;14721;42.668;23.386;2024-01-30T01:22:34;7.93;;;3.77;;
27209;SDS011;14721;42.668;23.386;2024-01-30T01:25:00;9.30;;;3.33;;
27209;SDS011;14721;42.668;23.386;2024-01-30T01:27:41;7.57;;;3.23;;
27209;SDS011;14721;42.668;23.386;2024-01-30T01:30:29;5.47;;;3.07;;
27209;SDS011;14721;42.668;23.386;2024-01-30T01:32:55;8.17;;;3.73;;
27209;SDS011;14721;42.668;23.386;2024-01-30T01:35:27;7.17;;;3.60;;
27209;SDS011;14721;42.668;23.386;2024-01-30T01:37:53;8.70;;;3.43;;
27209;SDS011;14721;42.668;23.386;2024-01-30T01:40:33;9.43;;;3.87;;
27209;SDS011;14721;42.668;23.386;2024-01-30T01:43:09;7.20;;;3.23;;
27209;SDS011;14721;42.668;23.386;2024-01-30T01:45:34;6.47;;;3.13;;
27209;SDS011;14721;42.668;23.386;2024-01-30T01:48:00;7.77;;;3.33;;
27209;SDS011;14721;42.668;23.386;2024-01-30T01:50:26;7.80;;;3.13;;
27209;SDS011;14721;42.668;23.386;2024-01-30T01:53:04;8.20;;;3.30;;
27209;SDS011;14721;42.668;23.386;2024-01-30T01:55:53;5.83;;;2.87;;
27209;SDS011;14721;42.668;23.386;2024-01-30T01:58:20;6.93;;;3.27;;
27209;SDS011;14721;42.668;23.386;2024-01-30T02:00:47;7.87;;;3.47;;
27209;SDS011;14721;42.668;23.386;2024-01-30T02:03:13;8.13;;;4.00;;
27209;SDS011;14721;42.668;23.386;2024-01-30T02:05:41;7.67;;;3.10;;
27209;SDS011;14721;42.668;23.386;2024-01-30T02:08:10;11.67;;;3.63;;
27209;SDS011;14721;42.668;23.386;2024-01-30T02:10:39;7.00;;;3.83;;
27209;SDS011;14721;42.668;23.386;2024-01-30T02:13:07;10.37;;;4.10;;
27209;SDS011;14721;42.668;23.386;2024-01-30T02:15:32;7.97;;;3.63;;
27209;SDS011;14721;42.668;23.386;2024-01-30T02:18:00;8.20;;;3.67;;
27209;SDS011;14721;42.668;23.386;2024-01-30T02:20:28;9.23;;;3.60;;
27209;SDS011;14721;42.668;23.386;2024-01-30T02:22:56;7.03;;;3.20;;
27209;SDS011;14721;42.668;23.386;2024-01-30T02:25:33;7.03;;;3.33;;
27209;SDS011;14721;42.668;23.386;2024-01-30T02:28:01;8.93;;;4.07;;
27209;SDS011;14721;42.668;23.386;2024-01-30T02:30:31;7.67;;;2.80;;
27209;SDS011;14721;42.668;23.386;2024-01-30T02:33:00;9.20;;;4.33;;
27209;SDS011;14721;42.668;23.386;2024-01-30T02:35:28;12.43;;;4.03;;
27209;SDS011;14721;42.668;23.386;2024-01-30T02:37:56;9.70;;;2.93;;
27209;SDS011;14721;42.668;23.386;2024-01-30T02:40:37;8.43;;;3.57;;
27209;SDS011;14721;42.668;23.386;2024-01-30T02:43:04;6.27;;;3.50;;
27209;SDS011;14721;42.668;23.386;2024-01-30T02:45:30;12.53;;;4.00;;
27209;SDS011;14721;42.668;23.386;2024-01-30T02:47:58;7.47;;;3.70;;
27209;SDS011;14721;42.668;23.386;2024-01-30T02:50:24;8.30;;;3.30;;
27209;SDS011;14721;42.668;23.386;2024-01-30T02:53:08;6.43;;;3.23;;
27209;SDS011;14721;42.668;23.386;2024-01-30T02:55:51;11.00;;;3.90;;
27209;SDS011;14721;42.668;23.386;2024-01-30T02:58:16;10.67;;;3.80;;
27209;SDS011;14721;42.668;23.386;2024-01-30T03:00:42;9.00;;;3.57;;
27209;SDS011;14721;42.668;23.386;2024-01-30T03:03:07;9.37;;;4.27;;
27209;SDS011;14721;42.668;23.386;2024-01-30T03:05:36;10.87;;;3.53;;
27209;SDS011;14721;42.668;23.386;2024-01-30T03:08:01;7.23;;;3.53;;
27209;SDS011;14721;42.668;23.386;2024-01-30T03:10:40;12.30;;;3.40;;
27209;SDS011;14721;42.668;23.386;2024-01-30T03:13:14;4.57;;;2.70;;
27209;SDS011;14721;42.668;23.386;2024-01-30T03:15:42;6.13;;;2.27;;
27209;SDS011;14721;42.668;23.386;2024-01-30T03:18:07;6.80;;;3.00;;
27209;SDS011;14721;42.668;23.386;2024-01-30T03:23:25;6.43;;;3.23;;
27209;SDS011;14721;42.668;23.386;2024-01-30T03:26:14;6.03;;;2.83;;
27209;SDS011;14721;42.668;23.386;2024-01-30T03:28:40;14.23;;;2.90;;
27209;SDS011;14721;42.668;23.386;2024-01-30T03:31:06;8.57;;;3.33;;
27209;SDS011;14721;42.668;23.386;2024-01-30T03:33:32;6.47;;;3.97;;
27209;SDS011;14721;42.668;23.386;2024-01-30T03:42:49;5.93;;;2.57;;
27209;SDS011;14721;42.668;23.386;2024-01-30T03:48:37;4.73;;;2.20;;
27209;SDS011;14721;42.668;23.386;2024-01-30T03:51:02;7.70;;;2.47;;
27209;SDS011;14721;42.668;23.386;2024-01-30T03:53:28;6.90;;;2.13;;
27209;SDS011;14721;42.668;23.386;2024-01-30T03:55:54;4.23;;;1.87;;
27209;SDS011;14721;42.668;23.386;2024-01-30T03:58:30;7.17;;;3.30;;
27209;SDS011;14721;42.668;23.386;2024-01-30T04:00:55;6.87;;;3.10;;
27209;SDS011;14721;42.668;23.386;2024-01-30T04:03:21;6.97;;;2.77;;
27209;SDS011;14721;42.668;23.386;2024-01-30T04:05:47;6.60;;;2.30;;
27209;SDS011;14721;42.668;23.386;2024-01-30T04:08:12;3.87;;;1.73;;
27209;SDS011;14721;42.668;23.386;2024-01-30T04:10:38;4.00;;;2.17;;
27209;SDS011;14721;42.668;23.386;2024-01-30T04:13:03;6.30;;;2.33;;
27209;SDS011;14721;42.668;23.386;2024-01-30T04:15:38;6.37;;;2.20;;
27209;SDS011;14721;42.668;23.386;2024-01-30T04:18:24;6.03;;;3.20;;
27209;SDS011;14721;42.668;23.386;2024-01-30T04:20:52;9.30;;;3.07;;
27209;SDS011;14721;42.668;23.386;2024-01-30T04:23:23;6.17;;;3.37;;
27209;SDS011;14721;42.668;23.386;2024-01-30T04:25:59;6.57;;;3.23;;
27209;SDS011;14721;42.668;23.386;2024-01-30T04:28:24;5.77;;;2.80;;
27209;SDS011;14721;42.668;23.386;2024-01-30T04:30:52;6.60;;;2.47;;
27209;SDS011;14721;42.668;23.386;2024-01-30T04:33:20;7.57;;;2.93;;
27209;SDS011;14721;42.668;23.386;2024-01-30T04:39:12;10.13;;;3.67;;
27209;SDS011;14721;42.668;23.386;2024-01-30T04:41:38;5.97;;;2.60;;
27209;SDS011;14721;42.668;23.386;2024-01-30T04:44:03;9.30;;;3.90;;
27209;SDS011;14721;42.668;23.386;2024-01-30T04:56:35;6.43;;;3.30;;
27209;SDS011;14721;42.668;23.386;2024-01-30T04:59:02;6.33;;;2.97;;
27209;SDS011;14721;42.668;23.386;2024-01-30T05:01:27;11.93;;;4.23;;
27209;SDS011;14721;42.668;23.386;2024-01-30T05:03:53;6.53;;;3.80;;
27209;SDS011;14721;42.668;23.386;2024-01-30T05:06:27;8.13;;;3.37;;
27209;SDS011;14721;42.668;23.386;2024-01-30T05:09:22;8.20;;;3.33;;
27209;SDS011;14721;42.668;23.386;2024-01-30T05:11:56;6.67;;;3.53;;
27209;SDS011;14721;42.668;23.386;2024-01-30T05:14:26;9.23;;;4.40;;
27209;SDS011;14721;42.668;23.386;2024-01-30T05:17:11;9.13;;;3.90;;
27209;SDS011;14721;42.668;23.386;2024-01-30T05:19:40;7.30;;;3.97;;
27209;SDS011;14721;42.668;23.386;2024-01-30T05:22:16;6.13;;;3.50;;
27209;SDS011;14721;42.668;23.386;2024-01-30T05:24:43;11.13;;;4.23;;
27209;SDS011;14721;42.668;23.386;2024-01-30T05:27:12;11.77;;;4.37;;
27209;SDS011;14721;42.668;23.386;2024-01-30T05:30:18;11.03;;;4.53;;
27209;SDS011;14721;42.668;23.386;2024-01-30T05:32:43;16.67;;;4.07;;
27209;SDS011;14721;42.668;23.386;2024-01-30T05:35:09;7.73;;;4.07;;
27209;SDS011;14721;42.668;23.386;2024-01-30T05:37:36;7.80;;;4.07;;
27209;SDS011;14721;42.668;23.386;2024-01-30T05:40:02;9.43;;;3.90;;
27209;SDS011;14721;42.668;23.386;2024-01-30T05:42:47;7.53;;;3.80;;
27209;SDS011;14721;42.668;23.386;2024-01-30T05:45:13;11.27;;;4.77;;
27209;SDS011;14721;42.668;23.386;2024-01-30T05:47:39;12.90;;;5.13;;
27209;SDS011;14721;42.668;23.386;2024-01-30T05:50:07;8.80;;;4.43;;
27209;SDS011;14721;42.668;23.386;2024-01-30T05:52:33;14.10;;;4.00;;
27209;SDS011;14721;42.668;23.386;2024-01-30T05:54:58;7.93;;;3.40;;
27209;SDS011;14721;42.668;23.386;2024-01-30T05:57:26;8.93;;;4.03;;
27209;SDS011;14721;42.668;23.386;2024-01-30T06:00:09;8.13;;;4.07;;
27209;SDS011;14721;42.668;23.386;2024-01-30T06:02:38;10.10;;;5.03;;
27209;SDS011;14721;42.668;23.386;2024-01-30T06:05:24;12.03;;;4.50;;
27209;SDS011;14721;42.668;23.386;2024-01-30T06:07:52;13.43;;;5.33;;
27209;SDS011;14721;42.668;23.386;2024-01-30T06:10:18;10.57;;;5.17;;
27209;SDS011;14721;42.668;23.386;2024-01-30T06:12:47;15.43;;;4.57;;
27209;SDS011;14721;42.668;23.386;2024-01-30T06:15:22;16.77;;;4.67;;
27209;SDS011;14721;42.668;23.386;2024-01-30T06:17:48;20.70;;;8.63;;
27209;SDS011;14721;42.668;23.386;2024-01-30T06:20:13;13.43;;;5.33;;
27209;SDS011;14721;42.668;23.386;2024-01-30T06:22:40;24.07;;;5.13;;
27209;SDS011;14721;42.668;23.386;2024-01-30T06:25:08;16.20;;;5.73;;
27209;SDS011;14721;42.668;23.386;2024-01-30T06:27:44;22.03;;;6.60;;
27209;SDS011;14721;42.668;23.386;2024-01-30T06:30:10;15.20;;;5.40;;
27209;SDS011;14721;42.668;23.386;2024-01-30T06:32:46;18.13;;;4.77;;
27209;SDS011;14721;42.668;23.386;2024-01-30T06:35:31;15.87;;;6.10;;
27209;SDS011;14721;42.668;23.386;2024-01-30T06:38:22;14.97;;;5.60;;
27209;SDS011;14721;42.668;23.386;2024-01-30T06:40:58;9.50;;;5.17;;
27209;SDS011;14721;42.668;23.386;2024-01-30T06:43:25;13.97;;;5.63;;
27209;SDS011;14721;42.668;23.386;2024-01-30T06:45:51;15.37;;;4.83;;
27209;SDS011;14721;42.668;23.386;2024-01-30T06:48:17;22.03;;;5.63;;
27209;SDS011;14721;42.668;23.386;2024-01-30T06:50:45;20.00;;;6.33;;
27209;SDS011;14721;42.668;23.386;2024-01-30T06:53:11;19.27;;;6.20;;
27209;SDS011;14721;42.668;23.386;2024-01-30T06:55:36;12.87;;;4.90;;
27209;SDS011;14721;42.668;23.386;2024-01-30T06:58:02;24.03;;;6.50;;
27209;SDS011;14721;42.668;23.386;2024-01-30T07:00:28;12.57;;;4.20;;
27209;SDS011;14721;42.668;23.386;2024-01-30T07:02:53;8.00;;;3.67;;
27209;SDS011;14721;42.668;23.386;2024-01-30T07:05:19;6.20;;;3.00;;
27209;SDS011;14721;42.668;23.386;2024-01-30T07:07:46;8.33;;;3.10;;
27209;SDS011;14721;42.668;23.386;2024-01-30T07:10:11;12.13;;;3.33;;
27209;SDS011;14721;42.668;23.386;2024-01-30T07:12:37;10.13;;;3.20;;
27209;SDS011;14721;42.668;23.386;2024-01-30T07:15:02;7.37;;;2.57;;
27209;SDS011;14721;42.668;23.386;2024-01-30T07:17:28;10.73;;;4.27;;
27209;SDS011;14721;42.668;23.386;2024-01-30T07:19:54;8.20;;;3.73;;
27209;SDS011;14721;42.668;23.386;2024-01-30T07:22:20;8.57;;;2.70;;
27209;SDS011;14721;42.668;23.386;2024-01-30T07:24:45;6.30;;;2.40;;
27209;SDS011;14721;42.668;23.386;2024-01-30T07:27:13;5.23;;;2.40;;
27209;SDS011;14721;42.668;23.386;2024-01-30T07:29:39;8.37;;;2.73;;
27209;SDS011;14721;42.668;23.386;2024-01-30T07:32:05;7.00;;;2.77;;
27209;SDS011;14721;42.668;23.386;2024-01-30T07:34:30;11.07;;;2.63;;
27209;SDS011;14721;42.668;23.386;2024-01-30T07:36:56;7.67;;;2.30;;
27209;SDS011;14721;42.668;23.386;2024-01-30T07:39:24;6.93;;;2.70;;
27209;SDS011;14721;42.668;23.386;2024-01-30T07:41:53;6.20;;;2.53;;
27209;SDS011;14721;42.668;23.386;2024-01-30T07:44:18;4.17;;;2.37;;
27209;SDS011;14721;42.668;23.386;2024-01-30T07:46:49;8.40;;;2.50;;
27209;SDS011;14721;42.668;23.386;2024-01-30T07:49:15;5.77;;;2.43;;
27209;SDS011;14721;42.668;23.386;2024-01-30T07:51:40;7.07;;;2.50;;
27209;SDS011;14721;42.668;23.386;2024-01-30T07:54:06;6.83;;;2.30;;
27209;SDS011;14721;42.668;23.386;2024-01-30T07:56:31;6.83;;;3.47;;
27209;SDS011;14721;42.668;23.386;2024-01-30T07:58:57;5.27;;;2.70;;
27209;SDS011;14721;42.668;23.386;2024-01-30T08:01:22;5.90;;;2.30;;
27209;SDS011;14721;42.668;23.386;2024-01-30T08:03:48;10.03;;;2.67;;
27209;SDS011;14721;42.668;23.386;2024-01-30T08:06:21;6.77;;;2.67;;
27209;SDS011;14721;42.668;23.386;2024-01-30T08:08:46;3.40;;;1.90;;
27209;SDS011;14721;42.668;23.386;2024-01-30T08:11:12;5.13;;;2.40;;
27209;SDS011;14721;42.668;23.386;2024-01-30T08:13:51;6.20;;;3.50;;
27209;SDS011;14721;42.668;23.386;2024-01-30T08:16:20;4.90;;;2.23;;
27209;SDS011;14721;42.668;23.386;2024-01-30T08:18:58;6.67;;;2.87;;
27209;SDS011;14721;42.668;23.386;2024-01-30T08:21:23;10.00;;;2.97;;
27209;SDS011;14721;42.668;23.386;2024-01-30T08:27:06;9.03;;;2.47;;
27209;SDS011;14721;42.668;23.386;2024-01-30T08:29:35;8.93;;;2.90;;
27209;SDS011;14721;42.668;23.386;2024-01-30T08:32:01;6.80;;;2.70;;
27209;SDS011;14721;42.668;23.386;2024-01-30T08:34:26;5.47;;;2.20;;
27209;SDS011;14721;42.668;23.386;2024-01-30T08:37:12;4.80;;;2.33;;
27209;SDS011;14721;42.668;23.386;2024-01-30T08:39:43;5.53;;;2.50;;
27209;SDS011;14721;42.668;23.386;2024-01-30T08:42:09;7.33;;;2.93;;
27209;SDS011;14721;42.668;23.386;2024-01-30T08:45:01;4.13;;;2.43;;
27209;SDS011;14721;42.668;23.386;2024-01-30T08:47:35;9.00;;;3.03;;
27209;SDS011;14721;42.668;23.386;2024-01-30T08:50:01;8.77;;;2.77;;
27209;SDS011;14721;42.668;23.386;2024-01-30T08:52:29;8.53;;;2.90;;
27209;SDS011;14721;42.668;23.386;2024-01-30T08:54:55;4.67;;;2.50;;
27209;SDS011;14721;42.668;23.386;2024-01-30T08:57:38;10.53;;;3.10;;
27209;SDS011;14721;42.668;23.386;2024-01-30T09:00:34;5.87;;;2.27;;
27209;SDS011;14721;42.668;23.386;2024-01-30T09:03:09;9.00;;;2.67;;
27209;SDS011;14721;42.668;23.386;2024-01-30T09:09:13;7.67;;;2.40;;
27209;SDS011;14721;42.668;23.386;2024-01-30T09:11:46;5.30;;;2.53;;
27209;SDS011;14721;42.668;23.386;2024-01-30T09:14:36;5.50;;;2.83;;
27209;SDS011;14721;42.668;23.386;2024-01-30T09:17:07;6.73;;;2.20;;
27209;SDS011;14721;42.668;23.386;2024-01-30T09:20:01;4.97;;;2.33;;
27209;SDS011;14721;42.668;23.386;2024-01-30T09:22:52;5.73;;;2.67;;
27209;SDS011;14721;42.668;23.386;2024-01-30T09:25:39;6.10;;;2.27;;
27209;SDS011;14721;42.668;23.386;2024-01-30T09:28:17;4.13;;;2.17;;
27209;SDS011;14721;42.668;23.386;2024-01-30T09:31:10;5.90;;;2.47;;
27209;SDS011;14721;42.668;23.386;2024-01-30T09:33:50;8.43;;;2.80;;
27209;SDS011;14721;42.668;23.386;2024-01-30T09:36:26;8.00;;;2.77;;
27209;SDS011;14721;42.668;23.386;2024-01-30T09:39:06;8.37;;;2.93;;
27209;SDS011;14721;42.668;23.386;2024-01-30T09:45:08;11.20;;;3.57;;
27209;SDS011;14721;42.668;23.386;2024-01-30T09:47:55;6.50;;;2.07;;
27209;SDS011;14721;42.668;23.386;2024-01-30T09:50:26;5.03;;;2.63;;
27209;SDS011;14721;42.668;23.386;2024-01-30T09:53:08;5.30;;;2.27;;
27209;SDS011;14721;42.668;23.386;2024-01-30T09:55:45;4.33;;;2.20;;
27209;SDS011;14721;42.668;23.386;2024-01-30T09:58:22;5.17;;;2.60;;
27209;SDS011;14721;42.668;23.386;2024-01-30T10:00:58;4.87;;;2.50;;
27209;SDS011;14721;42.668;23.386;2024-01-30T10:03:23;6.13;;;2.03;;
27209;SDS011;14721;42.668;23.386;2024-01-30T10:05:52;4.50;;;1.60;;
27209;SDS011;14721;42.668;23.386;2024-01-30T10:08:18;5.33;;;1.87;;
27209;SDS011;14721;42.668;23.386;2024-01-30T10:10:46;6.13;;;2.47;;
27209;SDS011;14721;42.668;23.386;2024-01-30T10:13:12;2.57;;;1.33;;
27209;SDS011;14721;42.668;23.386;2024-01-30T10:15:38;4.90;;;1.90;;
27209;SDS011;14721;42.668;23.386;2024-01-30T10:18:04;3.33;;;1.70;;
27209;SDS011;14721;42.668;23.386;2024-01-30T10:20:31;5.00;;;2.30;;
27209;SDS011;14721;42.668;23.386;2024-01-30T10:22:59;4.77;;;2.00;;
27209;SDS011;14721;42.668;23.386;2024-01-30T10:25:25;4.43;;;1.70;;
27209;SDS011;14721;42.668;23.386;2024-01-30T10:27:54;4.23;;;2.13;;
27209;SDS011;14721;42.668;23.386;2024-01-30T10:30:22;4.53;;;2.03;;
27209;SDS011;14721;42.668;23.386;2024-01-30T10:32:58;4.07;;;2.20;;
27209;SDS011;14721;42.668;23.386;2024-01-30T10:35:24;2.90;;;1.53;;
27209;SDS011;14721;42.668;23.386;2024-01-30T10:37:52;3.77;;;1.63;;
27209;SDS011;14721;42.668;23.386;2024-01-30T10:40:22;4.50;;;1.63;;
27209;SDS011;14721;42.668;23.386;2024-01-30T10:42:53;3.27;;;1.80;;
27209;SDS011;14721;42.668;23.386;2024-01-30T10:45:20;4.13;;;1.90;;
27209;SDS011;14721;42.668;23.386;2024-01-30T10:47:50;3.53;;;1.47;;
27209;SDS011;14721;42.668;23.386;2024-01-30T10:50:30;3.73;;;2.13;;
27209;SDS011;14721;42.668;23.386;2024-01-30T10:53:00;4.27;;;1.97;;
27209;SDS011;14721;42.668;23.386;2024-01-30T10:55:27;4.13;;;1.93;;
27209;SDS011;14721;42.668;23.386;2024-01-30T10:57:54;4.23;;;1.90;;
27209;SDS011;14721;42.668;23.386;2024-01-30T11:00:20;15.27;;;4.07;;
27209;SDS011;14721;42.668;23.386;2024-01-30T11:02:51;3.00;;;1.67;;
27209;SDS011;14721;42.668;23.386;2024-01-30T11:05:24;3.13;;;1.57;;
27209;SDS011;14721;42.668;23.386;2024-01-30T11:07:52;7.37;;;2.17;;
27209;SDS011;14721;42.668;23.386;2024-01-30T11:10:18;3.43;;;1.60;;
27209;SDS011;14721;42.668;23.386;2024-01-30T11:12:45;3.80;;;1.97;;
27209;SDS011;14721;42.668;23.386;2024-01-30T11:15:18;4.40;;;1.73;;
27209;SDS011;14721;42.668;23.386;2024-01-30T11:17:56;4.40;;;1.90;;
27209;SDS011;14721;42.668;23.386;2024-01-30T11:20:22;6.63;;;2.57;;
27209;SDS011;14721;42.668;23.386;2024-01-30T11:22:52;3.93;;;1.77;;
27209;SDS011;14721;42.668;23.386;2024-01-30T11:25:20;3.83;;;1.63;;
27209;SDS011;14721;42.668;23.386;2024-01-30T11:27:46;5.00;;;1.90;;
27209;SDS011;14721;42.668;23.386;2024-01-30T11:33:32;2.80;;;1.63;;
27209;SDS011;14721;42.668;23.386;2024-01-30T11:36:00;5.87;;;2.37;;
27209;SDS011;14721;42.668;23.386;2024-01-30T11:38:31;3.67;;;1.53;;
27209;SDS011;14721;42.668;23.386;2024-01-30T11:40:57;5.60;;;1.70;;
27209;SDS011;14721;42.668;23.386;2024-01-30T11:43:25;4.17;;;1.50;;
27209;SDS011;14721;42.668;23.386;2024-01-30T11:45:51;7.10;;;1.80;;
27209;SDS011;14721;42.668;23.386;2024-01-30T11:51:13;3.83;;;1.87;;
27209;SDS011;14721;42.668;23.386;2024-01-30T11:53:38;7.10;;;2.33;;
27209;SDS011;14721;42.668;23.386;2024-01-30T11:56:06;3.87;;;1.80;;
27209;SDS011;14721;42.668;23.386;2024-01-30T11:58:32;3.23;;;2.10;;
27209;SDS011;14721;42.668;23.386;2024-01-30T12:00:57;11.00;;;3.97;;
27209;SDS011;14721;42.668;23.386;2024-01-30T12:03:25;7.27;;;2.17;;
27209;SDS011;14721;42.668;23.386;2024-01-30T12:05:57;6.00;;;2.00;;
27209;SDS011;14721;42.668;23.386;2024-01-30T12:08:23;4.00;;;1.93;;
27209;SDS011;14721;42.668;23.386;2024-01-30T12:10:55;5.97;;;2.30;;
27209;SDS011;14721;42.668;23.386;2024-01-30T12:13:26;3.70;;;1.63;;
27209;SDS011;14721;42.668;23.386;2024-01-30T12:15:52;4.97;;;1.77;;
27209;SDS011;14721;42.668;23.386;2024-01-30T12:18:18;3.93;;;2.20;;
27209;SDS011;14721;42.668;23.386;2024-01-30T12:20:56;4.17;;;1.67;;
27209;SDS011;14721;42.668;23.386;2024-01-30T12:23:34;4.87;;;2.50;;
27209;SDS011;14721;42.668;23.386;2024-01-30T12:26:00;3.67;;;1.73;;
27209;SDS011;14721;42.668;23.386;2024-01-30T12:28:27;6.07;;;2.00;;
27209;SDS011;14721;42.668;23.386;2024-01-30T12:31:04;5.03;;;2.13;;
27209;SDS011;14721;42.668;23.386;2024-01-30T12:33:35;3.60;;;2.23;;
27209;SDS011;14721;42.668;23.386;2024-01-30T12:36:01;3.70;;;1.87;;
27209;SDS011;14721;42.668;23.386;2024-01-30T12:38:55;3.53;;;2.10;;
27209;SDS011;14721;42.668;23.386;2024-01-30T12:41:25;3.23;;;2.07;;
27209;SDS011;14721;42.668;23.386;2024-01-30T12:44:20;3.83;;;1.90;;
27209;SDS011;14721;42.668;23.386;2024-01-30T12:47:09;5.47;;;2.80;;
27209;SDS011;14721;42.668;23.386;2024-01-30T12:50:08;9.70;;;2.27;;
27209;SDS011;14721;42.668;23.386;2024-01-30T12:52:37;6.90;;;2.53;;
27209;SDS011;14721;42.668;23.386;2024-01-30T12:55:03;4.47;;;1.80;;
27209;SDS011;14721;42.668;23.386;2024-01-30T12:57:29;5.03;;;1.33;;
27209;SDS011;14721;42.668;23.386;2024-01-30T12:59:55;3.93;;;1.80;;
27209;SDS011;14721;42.668;23.386;2024-01-30T13:02:24;3.67;;;1.60;;
27209;SDS011;14721;42.668;23.386;2024-01-30T13:05:00;3.33;;;1.80;;
27209;SDS011;14721;42.668;23.386;2024-01-30T13:07:25;4.80;;;2.43;;
27209;SDS011;14721;42.668;23.386;2024-01-30T13:09:51;4.87;;;2.23;;
27209;SDS011;14721;42.668;23.386;2024-01-30T13:12:21;5.43;;;2.50;;
27209;SDS011;14721;42.668;23.386;2024-01-30T13:14:52;4.60;;;2.40;;
27209;SDS011;14721;42.668;23.386;2024-01-30T13:20:49;5.00;;;1.97;;
27209;SDS011;14721;42.668;23.386;2024-01-30T13:23:15;5.83;;;1.97;;
27209;SDS011;14721;42.668;23.386;2024-01-30T13:25:46;5.60;;;2.23;;
27209;SDS011;14721;42.668;23.386;2024-01-30T13:28:32;4.50;;;1.97;;
27209;SDS011;14721;42.668;23.386;2024-01-30T13:31:05;5.60;;;2.27;;
27209;SDS011;14721;42.668;23.386;2024-01-30T13:33:40;4.83;;;2.53;;
27209;SDS011;14721;42.668;23.386;2024-01-30T13:36:10;6.93;;;2.60;;
27209;SDS011;14721;42.668;23.386;2024-01-30T13:39:18;4.90;;;2.57;;
27209;SDS011;14721;42.668;23.386;2024-01-30T13:41:57;3.60;;;1.70;;
27209;SDS011;14721;42.668;23.386;2024-01-30T13:44:32;4.53;;;2.00;;
27209;SDS011;14721;42.668;23.386;2024-01-30T13:47:29;7.33;;;2.67;;
27209;SDS011;14721;42.668;23.386;2024-01-30T13:50:37;6.20;;;2.40;;
27209;SDS011;14721;42.668;23.386;2024-01-30T14:14:36;7.90;;;2.60;;
27209;SDS011;14721;42.668;23.386;2024-01-30T14:17:36;4.27;;;2.03;;
27209;SDS011;14721;42.668;23.386;2024-01-30T14:20:05;5.60;;;2.20;;
27209;SDS011;14721;42.668;23.386;2024-01-30T14:22:54;3.90;;;2.00;;
27209;SDS011;14721;42.668;23.386;2024-01-30T14:35:43;6.47;;;2.63;;
27209;SDS011;14721;42.668;23.386;2024-01-30T14:38:08;4.37;;;2.17;;
27209;SDS011;14721;42.668;23.386;2024-01-30T14:40:34;6.00;;;2.37;;
27209;SDS011;14721;42.668;23.386;2024-01-30T14:43:00;6.77;;;2.37;;
27209;SDS011;14721;42.668;23.386;2024-01-30T14:45:26;5.20;;;2.70;;
27209;SDS011;14721;42.668;23.386;2024-01-30T14:47:51;7.10;;;2.93;;
27209;SDS011;14721;42.668;23.386;2024-01-30T14:50:17;6.63;;;2.20;;
27209;SDS011;14721;42.668;23.386;2024-01-30T14:52:43;9.17;;;3.27;;
27209;SDS011;14721;42.668;23.386;2024-01-30T14:55:09;4.50;;;1.90;;
27209;SDS011;14721;42.668;23.386;2024-01-30T14:57:35;4.40;;;2.50;;
27209;SDS011;14721;42.668;23.386;2024-01-30T15:00:03;7.00;;;2.33;;
27209;SDS011;14721;42.668;23.386;2024-01-30T15:02:29;5.70;;;2.60;;
27209;SDS011;14721;42.668;23.386;2024-01-30T15:04:55;5.33;;;2.47;;
27209;SDS011;14721;42.668;23.386;2024-01-30T15:07:21;5.50;;;2.83;;
27209;SDS011;14721;42.668;23.386;2024-01-30T15:10:10;8.23;;;3.17;;
27209;SDS011;14721;42.668;23.386;2024-01-30T15:12:38;7.00;;;3.17;;
27209;SDS011;14721;42.668;23.386;2024-01-30T15:15:06;9.33;;;3.47;;
27209;SDS011;14721;42.668;23.386;2024-01-30T15:17:33;6.10;;;2.80;;
27209;SDS011;14721;42.668;23.386;2024-01-30T15:19:59;6.40;;;3.00;;
27209;SDS011;14721;42.668;23.386;2024-01-30T15:22:32;12.13;;;3.60;;
27209;SDS011;14721;42.668;23.386;2024-01-30T15:25:10;6.90;;;3.20;;
27209;SDS011;14721;42.668;23.386;2024-01-30T15:27:36;11.77;;;3.37;;
27209;SDS011;14721;42.668;23.386;2024-01-30T15:30:14;9.10;;;3.37;;
27209;SDS011;14721;42.668;23.386;2024-01-30T15:32:51;6.53;;;3.40;;
27209;SDS011;14721;42.668;23.386;2024-01-30T15:35:28;6.50;;;2.67;;
27209;SDS011;14721;42.668;23.386;2024-01-30T15:37:55;8.70;;;3.37;;
27209;SDS011;14721;42.668;23.386;2024-01-30T15:40:25;7.67;;;3.03;;
27209;SDS011;14721;42.668;23.386;2024-01-30T15:43:00;13.10;;;3.47;;
27209;SDS011;14721;42.668;23.386;2024-01-30T15:45:26;6.77;;;2.90;;
27209;SDS011;14721;42.668;23.386;2024-01-30T15:47:51;7.07;;;2.80;;
27209;SDS011;14721;42.668;23.386;2024-01-30T15:50:17;8.07;;;3.40;;
27209;SDS011;14721;42.668;23.386;2024-01-30T15:52:47;9.20;;;3.97;;
27209;SDS011;14721;42.668;23.386;2024-01-30T15:55:16;7.07;;;3.50;;
27209;SDS011;14721;42.668;23.386;2024-01-30T15:57:59;9.43;;;3.67;;
27209;SDS011;14721;42.668;23.386;2024-01-30T16:00:36;11.60;;;3.80;;
27209;SDS011;14721;42.668;23.386;2024-01-30T16:03:23;9.10;;;4.43;;
27209;SDS011;14721;42.668;23.386;2024-01-30T16:05:52;10.63;;;4.63;;
27209;SDS011;14721;42.668;23.386;2024-01-30T16:08:23;12.73;;;5.00;;
27209;SDS011;14721;42.668;23.386;2024-01-30T16:11:22;10.50;;;5.00;;
27209;SDS011;14721;42.668;23.386;2024-01-30T16:13:47;13.80;;;5.63;;
27209;SDS011;14721;42.668;23.386;2024-01-30T16:16:16;12.67;;;5.27;;
27209;SDS011;14721;42.668;23.386;2024-01-30T16:18:43;9.77;;;4.60;;
27209;SDS011;14721;42.668;23.386;2024-01-30T16:21:08;10.73;;;4.30;;
27209;SDS011;14721;42.668;23.386;2024-01-30T16:23:37;8.27;;;4.00;;
27209;SDS011;14721;42.668;23.386;2024-01-30T16:26:09;8.90;;;4.67;;
27209;SDS011;14721;42.668;23.386;2024-01-30T16:28:47;5.97;;;3.97;;
27209;SDS011;14721;42.668;23.386;2024-01-30T16:31:21;9.83;;;4.23;;
27209;SDS011;14721;42.668;23.386;2024-01-30T16:33:46;13.97;;;5.33;;
27209;SDS011;14721;42.668;23.386;2024-01-30T16:36:13;14.53;;;6.30;;
27209;SDS011;14721;42.668;23.386;2024-01-30T16:38:39;14.50;;;6.40;;
27209;SDS011;14721;42.668;23.386;2024-01-30T16:41:16;16.33;;;7.10;;
27209;SDS011;14721;42.668;23.386;2024-01-30T16:43:42;20.37;;;7.30;;
27209;SDS011;14721;42.668;23.386;2024-01-30T16:46:08;19.67;;;8.40;;
27209;SDS011;14721;42.668;23.386;2024-01-30T16:48:40;16.83;;;6.67;;
27209;SDS011;14721;42.668;23.386;2024-01-30T16:51:08;19.83;;;8.40;;
27209;SDS011;14721;42.668;23.386;2024-01-30T16:53:34;20.27;;;9.47;;